استانبول, ترکیه

04:57 PM EEST on سپتامبر 02, 2014 (GMT +0300)
Ataturk | Change Station
CLOSE
Current Station
Airport
Location: Istanbul,
Elevation: 121 ft
Nearby Weather Stations

Elev 121 ft 40.98 °N, 28.81 °E | Updated 37 minutes ago

Scattered Clouds
ابرهای پراکنده
84 °F
Feels Like 87 °F
N
7
باد متغير باد from جنوب غربی

امروز
High -- | Low -- °F
--% Chance of Precip.
دیروز
High -- | Low -- °F
Precip. -- در
6:32 AM 7:36 PM
ربع اول, 51% visible
فشار 29.74 در
ديد 6.2 مايل، ميل (در برابر كيلومتر
ابری ابرهای پراکنده 3000 ft
شاخص گرما 87 °F
قطره شبنم 66 °F
رطوبت 55%
بارش باران 0.00 در
برف عمیق Not available.
مادون قرمز 3 out of 12
Pollen Not available.
تمیزی هوا Not available.
Flu Activity Not available.
METAR LTBA 021320Z 22006KT 190V250 9999 SCT030 29/19 Q1007 NOSIG RMK RWY17L VRB02KT RWY05 20005KT 160V230 RWY23 19005KT 140V220

More Conditions Fewer Conditions

فشار 29.74 در
ديد 6.2 مايل، ميل (در برابر كيلومتر
ابری ابرهای پراکنده 3000 ft
شاخص گرما 87 °F
قطره شبنم 66 °F
رطوبت 55%
بارش باران 0.00 در
برف عمیق Not available.
مادون قرمز 3 out of 12
Pollen Not available.
تمیزی هوا Not available.
Flu Activity Not available.
METAR LTBA 021320Z 22006KT 190V250 9999 SCT030 29/19 Q1007 NOSIG RMK RWY17L VRB02KT RWY05 20005KT 160V230 RWY23 19005KT 140V220

More Conditions Fewer Conditions

10-Day Weather Forecast

Almanac

ستاره شناسی

Sep. 02, 2014 Rise Set
وقت حقیقی 6:32 AM EEST 7:36 PM EEST
تاریک و روشن اجتماعی 6:03 AM EEST 8:04 PM EEST
تاریک روشن دریایی 5:30 AM EEST 8:37 PM EEST
شفق و فلق نجومی 4:55 AM EEST 9:12 PM EEST
ماه 2:00 PM EEST ماه غروب نمى كند
میزان روشنایی روز 14h 00m
طول روز
13h 03m
Tomorrow will be 2m 38s shorter.
ربع اول, 51% of the Moon is Illuminated
امروز
ربع اول
Sep 8
ماه کامل
Sep 15
ربع آخر
Sep 24
New
Oct 1
ربع اول

Yesterday's Extremes

Country Highs Country Lows

Community

WunderPhotos

Upload Photos

1,749,656 photos uploaded!

Nearby

تمیزی هوا

Not available.

عمق برف

Not available.

Earthquake Activity

شهر Distance Mag. Time & Date
No recent earthquake activity has been reported nearby.
Minimum magnitude displayed is 2.5.

Coastal Water Temperatures

منطقه درجه حرارت
No Stations Reporting

Nearby Weather Stations